Preview of NWS' New Version of Forecast
This preview is not operational and should not be used for support decisions.

Terminal Aerodrome Forecast (TAF)

Issued by National Weather Service (NWS)

                            
000
FTUS46 KMFR 191140
TAFRBG
TAF
KRBG 191140Z 1912/2012 00000KT P6SM BKN025
     FM191600 00000KT P6SM FEW025
     FM192300 36008KT P6SM SKC
     FM200500 34002KT P6SM SKC=